sensor_id;sensor_type;location;lat;lon;timestamp;temperature;humidity
18085;DHT22;9169;44.492;11.372;2023-04-24T00:01:23;20.80;39.70
18085;DHT22;9169;44.492;11.372;2023-04-24T00:03:51;20.80;39.70
18085;DHT22;9169;44.492;11.372;2023-04-24T00:06:21;20.80;39.80
18085;DHT22;9169;44.492;11.372;2023-04-24T00:08:51;20.80;39.90
18085;DHT22;9169;44.492;11.372;2023-04-24T00:11:19;20.80;39.80
18085;DHT22;9169;44.492;11.372;2023-04-24T00:13:48;20.90;39.90
18085;DHT22;9169;44.492;11.372;2023-04-24T00:16:17;20.90;40.00
18085;DHT22;9169;44.492;11.372;2023-04-24T00:18:45;20.90;40.00
18085;DHT22;9169;44.492;11.372;2023-04-24T00:21:14;20.90;39.90
18085;DHT22;9169;44.492;11.372;2023-04-24T00:23:46;20.90;40.00
18085;DHT22;9169;44.492;11.372;2023-04-24T00:26:15;20.90;40.00
18085;DHT22;9169;44.492;11.372;2023-04-24T00:28:43;20.90;40.20
18085;DHT22;9169;44.492;11.372;2023-04-24T00:31:14;20.90;40.70
18085;DHT22;9169;44.492;11.372;2023-04-24T00:33:43;20.90;40.20
18085;DHT22;9169;44.492;11.372;2023-04-24T00:36:11;20.90;40.20
18085;DHT22;9169;44.492;11.372;2023-04-24T00:38:40;20.90;40.20
18085;DHT22;9169;44.492;11.372;2023-04-24T00:41:10;20.90;40.40
18085;DHT22;9169;44.492;11.372;2023-04-24T00:43:40;20.90;40.30
18085;DHT22;9169;44.492;11.372;2023-04-24T00:46:08;21.00;40.40
18085;DHT22;9169;44.492;11.372;2023-04-24T00:48:39;21.00;40.40
18085;DHT22;9169;44.492;11.372;2023-04-24T00:51:08;21.00;40.50
18085;DHT22;9169;44.492;11.372;2023-04-24T00:53:36;21.00;40.40
18085;DHT22;9169;44.492;11.372;2023-04-24T00:56:05;21.00;40.40
18085;DHT22;9169;44.492;11.372;2023-04-24T00:58:35;21.00;40.30
18085;DHT22;9169;44.492;11.372;2023-04-24T01:01:06;21.00;40.40
18085;DHT22;9169;44.492;11.372;2023-04-24T01:03:37;21.00;40.40
18085;DHT22;9169;44.492;11.372;2023-04-24T01:06:07;21.00;40.40
18085;DHT22;9169;44.492;11.372;2023-04-24T01:08:37;21.00;40.30
18085;DHT22;9169;44.492;11.372;2023-04-24T01:11:06;21.00;40.40
18085;DHT22;9169;44.492;11.372;2023-04-24T01:13:36;21.00;40.40
18085;DHT22;9169;44.492;11.372;2023-04-24T01:16:05;21.00;40.40
18085;DHT22;9169;44.492;11.372;2023-04-24T01:18:37;21.00;40.40
18085;DHT22;9169;44.492;11.372;2023-04-24T01:21:06;21.00;40.40
18085;DHT22;9169;44.492;11.372;2023-04-24T01:23:38;21.00;40.40
18085;DHT22;9169;44.492;11.372;2023-04-24T01:26:07;21.00;40.50
18085;DHT22;9169;44.492;11.372;2023-04-24T01:28:36;21.00;40.60
18085;DHT22;9169;44.492;11.372;2023-04-24T01:31:05;21.00;40.70
18085;DHT22;9169;44.492;11.372;2023-04-24T01:33:34;20.90;40.60
18085;DHT22;9169;44.492;11.372;2023-04-24T01:36:03;20.90;40.70
18085;DHT22;9169;44.492;11.372;2023-04-24T01:38:32;20.90;40.80
18085;DHT22;9169;44.492;11.372;2023-04-24T01:41:02;20.90;40.90
18085;DHT22;9169;44.492;11.372;2023-04-24T01:43:31;20.90;40.90
18085;DHT22;9169;44.492;11.372;2023-04-24T01:46:00;20.90;41.00
18085;DHT22;9169;44.492;11.372;2023-04-24T01:48:29;20.90;41.00
18085;DHT22;9169;44.492;11.372;2023-04-24T01:50:58;20.90;41.10
18085;DHT22;9169;44.492;11.372;2023-04-24T01:53:27;20.90;41.10
18085;DHT22;9169;44.492;11.372;2023-04-24T01:55:56;20.90;41.10
18085;DHT22;9169;44.492;11.372;2023-04-24T01:58:27;20.90;41.20
18085;DHT22;9169;44.492;11.372;2023-04-24T02:00:56;20.90;41.20
18085;DHT22;9169;44.492;11.372;2023-04-24T02:03:26;20.90;41.30
18085;DHT22;9169;44.492;11.372;2023-04-24T02:05:57;20.90;41.30
18085;DHT22;9169;44.492;11.372;2023-04-24T02:08:25;20.90;41.40
18085;DHT22;9169;44.492;11.372;2023-04-24T02:10:54;20.90;41.50
18085;DHT22;9169;44.492;11.372;2023-04-24T02:13:25;20.90;41.50
18085;DHT22;9169;44.492;11.372;2023-04-24T02:15:54;20.90;41.50
18085;DHT22;9169;44.492;11.372;2023-04-24T02:18:23;20.90;41.60
18085;DHT22;9169;44.492;11.372;2023-04-24T02:20:52;21.00;41.80
18085;DHT22;9169;44.492;11.372;2023-04-24T02:23:20;20.90;41.80
18085;DHT22;9169;44.492;11.372;2023-04-24T02:25:49;20.90;41.70
18085;DHT22;9169;44.492;11.372;2023-04-24T02:28:18;20.90;41.70
18085;DHT22;9169;44.492;11.372;2023-04-24T02:30:48;20.90;41.90
18085;DHT22;9169;44.492;11.372;2023-04-24T02:33:17;20.90;41.90
18085;DHT22;9169;44.492;11.372;2023-04-24T02:35:45;20.90;41.90
18085;DHT22;9169;44.492;11.372;2023-04-24T02:38:14;21.00;42.00
18085;DHT22;9169;44.492;11.372;2023-04-24T02:40:43;20.90;42.00
18085;DHT22;9169;44.492;11.372;2023-04-24T02:43:12;20.90;42.10
18085;DHT22;9169;44.492;11.372;2023-04-24T02:45:40;20.90;42.20
18085;DHT22;9169;44.492;11.372;2023-04-24T02:48:10;20.90;42.30
18085;DHT22;9169;44.492;11.372;2023-04-24T02:50:39;20.90;42.60
18085;DHT22;9169;44.492;11.372;2023-04-24T02:53:07;20.80;43.00
18085;DHT22;9169;44.492;11.372;2023-04-24T02:55:36;20.80;43.40
18085;DHT22;9169;44.492;11.372;2023-04-24T02:58:05;20.70;43.70
18085;DHT22;9169;44.492;11.372;2023-04-24T03:00:34;20.70;44.50
18085;DHT22;9169;44.492;11.372;2023-04-24T03:03:03;20.70;44.10
18085;DHT22;9169;44.492;11.372;2023-04-24T03:05:34;20.70;44.20
18085;DHT22;9169;44.492;11.372;2023-04-24T03:08:03;20.90;44.70
18085;DHT22;9169;44.492;11.372;2023-04-24T03:10:32;20.70;44.40
18085;DHT22;9169;44.492;11.372;2023-04-24T03:13:01;20.70;44.50
18085;DHT22;9169;44.492;11.372;2023-04-24T03:15:29;20.70;44.70
18085;DHT22;9169;44.492;11.372;2023-04-24T03:17:59;20.70;44.80
18085;DHT22;9169;44.492;11.372;2023-04-24T03:20:29;20.80;44.90
18085;DHT22;9169;44.492;11.372;2023-04-24T03:23:00;20.80;44.90
18085;DHT22;9169;44.492;11.372;2023-04-24T03:25:29;20.80;45.00
18085;DHT22;9169;44.492;11.372;2023-04-24T03:27:58;20.80;45.10
18085;DHT22;9169;44.492;11.372;2023-04-24T03:30:34;20.70;45.10
18085;DHT22;9169;44.492;11.372;2023-04-24T03:33:04;20.70;45.40
18085;DHT22;9169;44.492;11.372;2023-04-24T03:35:36;20.70;45.60
18085;DHT22;9169;44.492;11.372;2023-04-24T03:38:10;20.70;45.70
18085;DHT22;9169;44.492;11.372;2023-04-24T03:40:47;20.70;45.70
18085;DHT22;9169;44.492;11.372;2023-04-24T03:43:55;20.70;45.70
18085;DHT22;9169;44.492;11.372;2023-04-24T03:46:25;20.70;45.70
18085;DHT22;9169;44.492;11.372;2023-04-24T03:48:57;20.70;45.80
18085;DHT22;9169;44.492;11.372;2023-04-24T03:51:31;20.70;46.20
18085;DHT22;9169;44.492;11.372;2023-04-24T03:54:12;20.70;46.50
18085;DHT22;9169;44.492;11.372;2023-04-24T03:56:42;20.70;46.40
18085;DHT22;9169;44.492;11.372;2023-04-24T03:59:11;20.60;46.10
18085;DHT22;9169;44.492;11.372;2023-04-24T04:01:43;20.60;46.30
18085;DHT22;9169;44.492;11.372;2023-04-24T04:04:15;20.50;46.20
18085;DHT22;9169;44.492;11.372;2023-04-24T04:06:44;20.50;46.20
18085;DHT22;9169;44.492;11.372;2023-04-24T04:09:15;20.50;46.30
18085;DHT22;9169;44.492;11.372;2023-04-24T04:11:46;20.50;46.30
18085;DHT22;9169;44.492;11.372;2023-04-24T04:14:15;20.50;46.50
18085;DHT22;9169;44.492;11.372;2023-04-24T04:16:47;20.40;46.40
18085;DHT22;9169;44.492;11.372;2023-04-24T04:19:16;20.40;46.50
18085;DHT22;9169;44.492;11.372;2023-04-24T04:21:45;20.40;46.60
18085;DHT22;9169;44.492;11.372;2023-04-24T04:24:39;20.40;46.90
18085;DHT22;9169;44.492;11.372;2023-04-24T04:27:09;20.40;46.80
18085;DHT22;9169;44.492;11.372;2023-04-24T04:29:49;20.30;46.80
18085;DHT22;9169;44.492;11.372;2023-04-24T04:32:17;20.30;46.70
18085;DHT22;9169;44.492;11.372;2023-04-24T04:34:46;20.30;46.60
18085;DHT22;9169;44.492;11.372;2023-04-24T04:37:16;20.30;46.60
18085;DHT22;9169;44.492;11.372;2023-04-24T04:40:01;20.20;46.60
18085;DHT22;9169;44.492;11.372;2023-04-24T04:42:39;20.20;46.60
18085;DHT22;9169;44.492;11.372;2023-04-24T04:45:08;20.10;46.40
18085;DHT22;9169;44.492;11.372;2023-04-24T04:47:52;20.10;46.40
18085;DHT22;9169;44.492;11.372;2023-04-24T04:50:22;20.10;46.30
18085;DHT22;9169;44.492;11.372;2023-04-24T04:52:56;20.10;46.20
18085;DHT22;9169;44.492;11.372;2023-04-24T04:55:32;20.10;46.10
18085;DHT22;9169;44.492;11.372;2023-04-24T04:58:14;20.10;46.10
18085;DHT22;9169;44.492;11.372;2023-04-24T05:00:44;20.10;46.00
18085;DHT22;9169;44.492;11.372;2023-04-24T05:03:36;20.00;45.90
18085;DHT22;9169;44.492;11.372;2023-04-24T05:06:08;20.00;45.70
18085;DHT22;9169;44.492;11.372;2023-04-24T05:08:39;19.90;45.70
18085;DHT22;9169;44.492;11.372;2023-04-24T05:11:13;19.90;45.70
18085;DHT22;9169;44.492;11.372;2023-04-24T05:13:42;19.90;45.60
18085;DHT22;9169;44.492;11.372;2023-04-24T05:16:18;19.80;45.50
18085;DHT22;9169;44.492;11.372;2023-04-24T05:18:49;19.80;45.50
18085;DHT22;9169;44.492;11.372;2023-04-24T05:21:22;19.80;45.60
18085;DHT22;9169;44.492;11.372;2023-04-24T05:23:52;19.80;45.70
18085;DHT22;9169;44.492;11.372;2023-04-24T05:26:36;19.70;46.10
18085;DHT22;9169;44.492;11.372;2023-04-24T05:29:07;19.70;45.60
18085;DHT22;9169;44.492;11.372;2023-04-24T05:31:36;19.70;45.70
18085;DHT22;9169;44.492;11.372;2023-04-24T05:34:05;19.70;45.70
18085;DHT22;9169;44.492;11.372;2023-04-24T05:36:34;19.70;45.70
18085;DHT22;9169;44.492;11.372;2023-04-24T05:39:03;19.70;45.70
18085;DHT22;9169;44.492;11.372;2023-04-24T05:41:33;19.70;45.80
18085;DHT22;9169;44.492;11.372;2023-04-24T05:44:03;19.70;45.80
18085;DHT22;9169;44.492;11.372;2023-04-24T05:46:32;19.70;45.90
18085;DHT22;9169;44.492;11.372;2023-04-24T05:49:01;19.70;46.10
18085;DHT22;9169;44.492;11.372;2023-04-24T05:51:32;19.70;46.10
18085;DHT22;9169;44.492;11.372;2023-04-24T05:54:01;19.70;46.40
18085;DHT22;9169;44.492;11.372;2023-04-24T05:56:31;19.60;46.50
18085;DHT22;9169;44.492;11.372;2023-04-24T05:59:03;19.60;46.50
18085;DHT22;9169;44.492;11.372;2023-04-24T06:01:32;19.60;46.70
18085;DHT22;9169;44.492;11.372;2023-04-24T06:04:13;19.60;46.70
18085;DHT22;9169;44.492;11.372;2023-04-24T06:06:42;19.60;46.90
18085;DHT22;9169;44.492;11.372;2023-04-24T06:09:10;19.60;47.20
18085;DHT22;9169;44.492;11.372;2023-04-24T06:11:39;19.60;47.30
18085;DHT22;9169;44.492;11.372;2023-04-24T06:14:12;19.60;47.40
18085;DHT22;9169;44.492;11.372;2023-04-24T06:17:10;19.60;47.60
18085;DHT22;9169;44.492;11.372;2023-04-24T06:19:40;19.50;47.80
18085;DHT22;9169;44.492;11.372;2023-04-24T06:22:09;19.50;47.70
18085;DHT22;9169;44.492;11.372;2023-04-24T06:24:39;19.50;47.80
18085;DHT22;9169;44.492;11.372;2023-04-24T06:27:08;19.50;47.90
18085;DHT22;9169;44.492;11.372;2023-04-24T06:29:38;19.50;48.10
18085;DHT22;9169;44.492;11.372;2023-04-24T06:32:07;19.50;48.80
18085;DHT22;9169;44.492;11.372;2023-04-24T06:34:36;19.60;48.30
18085;DHT22;9169;44.492;11.372;2023-04-24T06:37:04;19.60;48.30
18085;DHT22;9169;44.492;11.372;2023-04-24T06:39:34;19.60;48.30
18085;DHT22;9169;44.492;11.372;2023-04-24T06:42:02;19.60;48.40
18085;DHT22;9169;44.492;11.372;2023-04-24T06:44:34;19.70;48.50
18085;DHT22;9169;44.492;11.372;2023-04-24T06:47:09;19.70;48.40
18085;DHT22;9169;44.492;11.372;2023-04-24T06:49:41;19.70;48.60
18085;DHT22;9169;44.492;11.372;2023-04-24T06:52:10;19.70;48.60
18085;DHT22;9169;44.492;11.372;2023-04-24T06:54:38;19.70;48.60
18085;DHT22;9169;44.492;11.372;2023-04-24T06:57:07;19.80;48.60
18085;DHT22;9169;44.492;11.372;2023-04-24T06:59:37;19.90;49.00
18085;DHT22;9169;44.492;11.372;2023-04-24T07:02:06;19.90;48.80
18085;DHT22;9169;44.492;11.372;2023-04-24T07:04:36;19.90;48.80
18085;DHT22;9169;44.492;11.372;2023-04-24T07:07:05;20.00;48.90
18085;DHT22;9169;44.492;11.372;2023-04-24T07:09:35;20.10;49.10
18085;DHT22;9169;44.492;11.372;2023-04-24T07:12:06;20.20;49.30
18085;DHT22;9169;44.492;11.372;2023-04-24T07:14:35;20.30;49.30
18085;DHT22;9169;44.492;11.372;2023-04-24T07:17:04;20.30;49.20
18085;DHT22;9169;44.492;11.372;2023-04-24T07:19:34;20.40;49.00
18085;DHT22;9169;44.492;11.372;2023-04-24T07:22:06;20.40;48.90
18085;DHT22;9169;44.492;11.372;2023-04-24T07:24:34;20.50;48.80
18085;DHT22;9169;44.492;11.372;2023-04-24T07:27:04;20.60;48.90
18085;DHT22;9169;44.492;11.372;2023-04-24T07:29:32;20.60;48.60
18085;DHT22;9169;44.492;11.372;2023-04-24T07:32:01;20.50;48.40
18085;DHT22;9169;44.492;11.372;2023-04-24T07:34:30;20.60;48.30
18085;DHT22;9169;44.492;11.372;2023-04-24T07:36:59;20.60;48.30
18085;DHT22;9169;44.492;11.372;2023-04-24T07:39:29;20.60;48.30
18085;DHT22;9169;44.492;11.372;2023-04-24T07:41:58;20.60;48.40
18085;DHT22;9169;44.492;11.372;2023-04-24T07:44:28;20.60;48.60
18085;DHT22;9169;44.492;11.372;2023-04-24T07:46:57;20.70;48.40
18085;DHT22;9169;44.492;11.372;2023-04-24T07:49:26;20.70;48.50
18085;DHT22;9169;44.492;11.372;2023-04-24T07:51:55;20.70;48.50
18085;DHT22;9169;44.492;11.372;2023-04-24T07:54:24;20.80;48.40
18085;DHT22;9169;44.492;11.372;2023-04-24T07:56:55;20.80;48.40
18085;DHT22;9169;44.492;11.372;2023-04-24T07:59:23;20.80;48.20
18085;DHT22;9169;44.492;11.372;2023-04-24T08:01:52;20.80;48.10
18085;DHT22;9169;44.492;11.372;2023-04-24T08:04:21;20.80;48.10
18085;DHT22;9169;44.492;11.372;2023-04-24T08:06:50;20.80;48.20
18085;DHT22;9169;44.492;11.372;2023-04-24T08:09:18;20.80;48.30
18085;DHT22;9169;44.492;11.372;2023-04-24T08:11:47;20.80;48.40
18085;DHT22;9169;44.492;11.372;2023-04-24T08:14:17;20.80;48.00
18085;DHT22;9169;44.492;11.372;2023-04-24T08:16:46;20.70;48.10
18085;DHT22;9169;44.492;11.372;2023-04-24T08:19:15;20.80;48.20
18085;DHT22;9169;44.492;11.372;2023-04-24T08:21:44;20.80;48.10
18085;DHT22;9169;44.492;11.372;2023-04-24T08:24:13;20.90;47.90
18085;DHT22;9169;44.492;11.372;2023-04-24T08:26:41;20.90;47.70
18085;DHT22;9169;44.492;11.372;2023-04-24T08:29:10;21.00;47.70
18085;DHT22;9169;44.492;11.372;2023-04-24T08:31:41;21.00;47.60
18085;DHT22;9169;44.492;11.372;2023-04-24T08:34:10;21.10;47.50
18085;DHT22;9169;44.492;11.372;2023-04-24T08:36:39;21.20;47.40
18085;DHT22;9169;44.492;11.372;2023-04-24T08:39:12;21.20;47.20
18085;DHT22;9169;44.492;11.372;2023-04-24T08:41:42;21.20;47.20
18085;DHT22;9169;44.492;11.372;2023-04-24T08:44:13;21.30;47.30
18085;DHT22;9169;44.492;11.372;2023-04-24T08:46:45;21.30;47.80
18085;DHT22;9169;44.492;11.372;2023-04-24T08:49:16;21.40;47.40
18085;DHT22;9169;44.492;11.372;2023-04-24T08:51:44;21.50;47.50
18085;DHT22;9169;44.492;11.372;2023-04-24T08:54:14;21.60;47.70
18085;DHT22;9169;44.492;11.372;2023-04-24T08:56:44;21.80;48.00
18085;DHT22;9169;44.492;11.372;2023-04-24T08:59:13;22.00;48.20
18085;DHT22;9169;44.492;11.372;2023-04-24T09:01:45;22.20;48.30
18085;DHT22;9169;44.492;11.372;2023-04-24T09:04:16;22.30;48.30
18085;DHT22;9169;44.492;11.372;2023-04-24T09:06:48;22.50;48.30
18085;DHT22;9169;44.492;11.372;2023-04-24T09:09:17;22.50;48.00
18085;DHT22;9169;44.492;11.372;2023-04-24T09:11:46;22.50;47.70
18085;DHT22;9169;44.492;11.372;2023-04-24T09:14:17;22.50;47.50
18085;DHT22;9169;44.492;11.372;2023-04-24T09:16:48;22.60;47.50
18085;DHT22;9169;44.492;11.372;2023-04-24T09:19:19;22.70;47.60
18085;DHT22;9169;44.492;11.372;2023-04-24T09:21:50;22.70;47.60
18085;DHT22;9169;44.492;11.372;2023-04-24T09:24:21;22.80;46.80
18085;DHT22;9169;44.492;11.372;2023-04-24T09:26:56;22.90;46.60
18085;DHT22;9169;44.492;11.372;2023-04-24T09:29:26;23.00;46.70
18085;DHT22;9169;44.492;11.372;2023-04-24T09:31:56;23.00;46.90
18085;DHT22;9169;44.492;11.372;2023-04-24T09:34:26;23.00;47.10
18085;DHT22;9169;44.492;11.372;2023-04-24T09:36:55;22.90;47.10
18085;DHT22;9169;44.492;11.372;2023-04-24T09:39:23;22.90;47.30
18085;DHT22;9169;44.492;11.372;2023-04-24T09:41:53;22.80;47.30
18085;DHT22;9169;44.492;11.372;2023-04-24T09:44:24;22.70;47.20
18085;DHT22;9169;44.492;11.372;2023-04-24T09:46:56;22.60;47.10
18085;DHT22;9169;44.492;11.372;2023-04-24T09:49:27;22.60;47.60
18085;DHT22;9169;44.492;11.372;2023-04-24T09:52:03;22.70;47.80
18085;DHT22;9169;44.492;11.372;2023-04-24T09:54:32;22.90;47.70
18085;DHT22;9169;44.492;11.372;2023-04-24T09:57:01;22.90;47.20
18085;DHT22;9169;44.492;11.372;2023-04-24T09:59:29;22.90;47.10
18085;DHT22;9169;44.492;11.372;2023-04-24T10:02:00;22.80;46.90
18085;DHT22;9169;44.492;11.372;2023-04-24T10:04:29;22.80;46.90
18085;DHT22;9169;44.492;11.372;2023-04-24T10:06:57;22.90;46.80
18085;DHT22;9169;44.492;11.372;2023-04-24T10:09:28;23.10;46.90
18085;DHT22;9169;44.492;11.372;2023-04-24T10:11:56;23.40;46.90
18085;DHT22;9169;44.492;11.372;2023-04-24T10:14:25;24.00;46.80
18085;DHT22;9169;44.492;11.372;2023-04-24T10:16:55;24.60;45.60
18085;DHT22;9169;44.492;11.372;2023-04-24T10:19:26;24.90;44.90
18085;DHT22;9169;44.492;11.372;2023-04-24T10:21:56;24.90;44.00
18085;DHT22;9169;44.492;11.372;2023-04-24T10:24:25;24.90;43.60
18085;DHT22;9169;44.492;11.372;2023-04-24T10:26:55;24.80;43.60
18085;DHT22;9169;44.492;11.372;2023-04-24T10:29:24;25.10;44.00
18085;DHT22;9169;44.492;11.372;2023-04-24T10:31:54;25.60;43.60
18085;DHT22;9169;44.492;11.372;2023-04-24T10:34:23;26.10;43.70
18085;DHT22;9169;44.492;11.372;2023-04-24T10:36:55;26.60;42.80
18085;DHT22;9169;44.492;11.372;2023-04-24T10:39:25;27.10;42.70
18085;DHT22;9169;44.492;11.372;2023-04-24T10:41:54;27.60;42.40
18085;DHT22;9169;44.492;11.372;2023-04-24T10:44:24;28.40;41.90
18085;DHT22;9169;44.492;11.372;2023-04-24T10:46:55;29.00;40.70
18085;DHT22;9169;44.492;11.372;2023-04-24T10:49:28;29.50;40.00
18085;DHT22;9169;44.492;11.372;2023-04-24T10:52:03;29.80;39.10
18085;DHT22;9169;44.492;11.372;2023-04-24T10:54:35;29.80;38.40
18085;DHT22;9169;44.492;11.372;2023-04-24T10:57:26;29.90;38.20
18085;DHT22;9169;44.492;11.372;2023-04-24T11:00:16;30.30;38.50
18085;DHT22;9169;44.492;11.372;2023-04-24T11:02:47;31.00;38.30
18085;DHT22;9169;44.492;11.372;2023-04-24T11:05:19;31.40;37.90
18085;DHT22;9169;44.492;11.372;2023-04-24T11:10:46;32.10;36.40
18085;DHT22;9169;44.492;11.372;2023-04-24T11:13:16;32.50;36.60
18085;DHT22;9169;44.492;11.372;2023-04-24T11:15:45;33.00;36.20
18085;DHT22;9169;44.492;11.372;2023-04-24T11:18:40;33.20;34.70
18085;DHT22;9169;44.492;11.372;2023-04-24T11:21:12;33.20;34.80
18085;DHT22;9169;44.492;11.372;2023-04-24T11:23:41;33.30;34.10
18085;DHT22;9169;44.492;11.372;2023-04-24T11:26:12;33.50;34.20
18085;DHT22;9169;44.492;11.372;2023-04-24T11:28:46;33.70;34.20
18085;DHT22;9169;44.492;11.372;2023-04-24T11:31:34;33.90;33.50
18085;DHT22;9169;44.492;11.372;2023-04-24T11:34:10;34.20;33.30
18085;DHT22;9169;44.492;11.372;2023-04-24T11:36:42;34.40;32.80
18085;DHT22;9169;44.492;11.372;2023-04-24T11:39:11;34.50;32.80
18085;DHT22;9169;44.492;11.372;2023-04-24T11:41:41;34.70;32.80
18085;DHT22;9169;44.492;11.372;2023-04-24T11:44:10;35.00;32.30
18085;DHT22;9169;44.492;11.372;2023-04-24T11:46:39;35.20;32.60
18085;DHT22;9169;44.492;11.372;2023-04-24T11:49:08;35.40;32.40
18085;DHT22;9169;44.492;11.372;2023-04-24T11:51:36;35.50;32.00
18085;DHT22;9169;44.492;11.372;2023-04-24T11:54:14;35.30;31.20
18085;DHT22;9169;44.492;11.372;2023-04-24T11:56:46;34.90;30.90
18085;DHT22;9169;44.492;11.372;2023-04-24T11:59:15;34.50;31.30
18085;DHT22;9169;44.492;11.372;2023-04-24T12:01:44;34.50;31.80
18085;DHT22;9169;44.492;11.372;2023-04-24T12:04:14;34.50;31.40
18085;DHT22;9169;44.492;11.372;2023-04-24T12:06:58;34.60;31.40
18085;DHT22;9169;44.492;11.372;2023-04-24T12:09:28;34.80;31.20
18085;DHT22;9169;44.492;11.372;2023-04-24T12:11:58;35.00;31.00
18085;DHT22;9169;44.492;11.372;2023-04-24T12:14:27;35.10;30.70
18085;DHT22;9169;44.492;11.372;2023-04-24T12:16:56;35.20;30.60
18085;DHT22;9169;44.492;11.372;2023-04-24T12:19:24;35.30;30.50
18085;DHT22;9169;44.492;11.372;2023-04-24T12:22:00;35.50;30.60
18085;DHT22;9169;44.492;11.372;2023-04-24T12:24:29;35.70;30.30
18085;DHT22;9169;44.492;11.372;2023-04-24T12:27:00;35.70;30.20
18085;DHT22;9169;44.492;11.372;2023-04-24T12:29:29;35.60;30.20
18085;DHT22;9169;44.492;11.372;2023-04-24T12:31:58;35.60;30.40
18085;DHT22;9169;44.492;11.372;2023-04-24T12:34:27;35.70;30.10
18085;DHT22;9169;44.492;11.372;2023-04-24T12:36:56;35.70;29.90
18085;DHT22;9169;44.492;11.372;2023-04-24T12:39:25;36.00;30.00
18085;DHT22;9169;44.492;11.372;2023-04-24T12:41:57;36.30;29.80
18085;DHT22;9169;44.492;11.372;2023-04-24T12:44:31;36.20;29.70
18085;DHT22;9169;44.492;11.372;2023-04-24T12:47:01;36.10;29.30
18085;DHT22;9169;44.492;11.372;2023-04-24T12:49:30;35.90;29.50
18085;DHT22;9169;44.492;11.372;2023-04-24T12:51:59;35.90;29.70
18085;DHT22;9169;44.492;11.372;2023-04-24T12:54:32;36.20;29.90
18085;DHT22;9169;44.492;11.372;2023-04-24T12:57:01;36.20;29.30
18085;DHT22;9169;44.492;11.372;2023-04-24T12:59:31;35.90;29.40
18085;DHT22;9169;44.492;11.372;2023-04-24T13:02:00;35.90;29.60
18085;DHT22;9169;44.492;11.372;2023-04-24T13:04:29;36.10;29.70
18085;DHT22;9169;44.492;11.372;2023-04-24T13:06:57;36.50;29.60
18085;DHT22;9169;44.492;11.372;2023-04-24T13:09:26;36.80;29.30
18085;DHT22;9169;44.492;11.372;2023-04-24T13:11:55;37.10;29.20
18085;DHT22;9169;44.492;11.372;2023-04-24T13:14:24;37.30;29.00
18085;DHT22;9169;44.492;11.372;2023-04-24T13:16:54;37.30;28.80
18085;DHT22;9169;44.492;11.372;2023-04-24T13:19:24;37.40;28.60
18085;DHT22;9169;44.492;11.372;2023-04-24T13:21:55;37.50;28.90
18085;DHT22;9169;44.492;11.372;2023-04-24T13:24:24;37.90;28.80
18085;DHT22;9169;44.492;11.372;2023-04-24T13:26:53;38.20;28.50
18085;DHT22;9169;44.492;11.372;2023-04-24T13:29:24;38.20;28.20
18085;DHT22;9169;44.492;11.372;2023-04-24T13:31:54;38.10;27.80
18085;DHT22;9169;44.492;11.372;2023-04-24T13:34:24;37.70;27.70
18085;DHT22;9169;44.492;11.372;2023-04-24T13:36:53;37.60;28.20
18085;DHT22;9169;44.492;11.372;2023-04-24T13:39:23;37.70;28.10
18085;DHT22;9169;44.492;11.372;2023-04-24T13:41:52;37.90;28.10
18085;DHT22;9169;44.492;11.372;2023-04-24T13:44:21;38.00;28.20
18085;DHT22;9169;44.492;11.372;2023-04-24T13:46:54;38.00;27.80
18085;DHT22;9169;44.492;11.372;2023-04-24T13:49:25;37.80;28.10
18085;DHT22;9169;44.492;11.372;2023-04-24T13:51:54;37.50;27.90
18085;DHT22;9169;44.492;11.372;2023-04-24T13:54:24;37.40;28.00
18085;DHT22;9169;44.492;11.372;2023-04-24T13:56:53;37.00;27.50
18085;DHT22;9169;44.492;11.372;2023-04-24T13:59:21;36.70;27.70
18085;DHT22;9169;44.492;11.372;2023-04-24T14:01:51;36.50;27.80
18085;DHT22;9169;44.492;11.372;2023-04-24T14:04:21;36.40;27.80
18085;DHT22;9169;44.492;11.372;2023-04-24T14:06:50;36.00;27.70
18085;DHT22;9169;44.492;11.372;2023-04-24T14:09:19;35.60;27.90
18085;DHT22;9169;44.492;11.372;2023-04-24T14:11:47;35.20;28.10
18085;DHT22;9169;44.492;11.372;2023-04-24T14:14:16;35.10;28.50
18085;DHT22;9169;44.492;11.372;2023-04-24T14:16:45;35.20;28.20
18085;DHT22;9169;44.492;11.372;2023-04-24T14:19:14;35.10;28.30
18085;DHT22;9169;44.492;11.372;2023-04-24T14:21:44;34.90;28.40
18085;DHT22;9169;44.492;11.372;2023-04-24T14:24:12;34.60;28.00
18085;DHT22;9169;44.492;11.372;2023-04-24T14:26:41;34.10;28.00
18085;DHT22;9169;44.492;11.372;2023-04-24T14:29:10;33.70;28.20
18085;DHT22;9169;44.492;11.372;2023-04-24T14:31:41;33.30;28.80
18085;DHT22;9169;44.492;11.372;2023-04-24T14:34:09;32.90;28.80
18085;DHT22;9169;44.492;11.372;2023-04-24T14:36:38;32.60;29.40
18085;DHT22;9169;44.492;11.372;2023-04-24T14:39:09;32.30;29.30
18085;DHT22;9169;44.492;11.372;2023-04-24T14:41:38;31.90;29.40
18085;DHT22;9169;44.492;11.372;2023-04-24T14:44:07;31.70;29.70
18085;DHT22;9169;44.492;11.372;2023-04-24T14:46:36;31.50;29.90
18085;DHT22;9169;44.492;11.372;2023-04-24T14:49:04;31.40;30.00
18085;DHT22;9169;44.492;11.372;2023-04-24T14:51:36;31.20;29.70
18085;DHT22;9169;44.492;11.372;2023-04-24T14:54:05;31.10;29.80
18085;DHT22;9169;44.492;11.372;2023-04-24T14:56:35;30.90;29.80
18085;DHT22;9169;44.492;11.372;2023-04-24T14:59:03;30.70;30.00
18085;DHT22;9169;44.492;11.372;2023-04-24T15:01:32;30.60;30.40
18085;DHT22;9169;44.492;11.372;2023-04-24T15:04:01;30.50;30.20
18085;DHT22;9169;44.492;11.372;2023-04-24T15:06:30;30.40;31.00
18085;DHT22;9169;44.492;11.372;2023-04-24T15:08:59;30.30;32.00
18085;DHT22;9169;44.492;11.372;2023-04-24T15:11:28;30.30;32.70
18085;DHT22;9169;44.492;11.372;2023-04-24T15:13:58;30.30;33.10
18085;DHT22;9169;44.492;11.372;2023-04-24T15:16:27;30.20;33.30
18085;DHT22;9169;44.492;11.372;2023-04-24T15:18:56;30.10;33.50
18085;DHT22;9169;44.492;11.372;2023-04-24T15:21:24;29.90;33.60
18085;DHT22;9169;44.492;11.372;2023-04-24T15:23:54;29.70;33.70
18085;DHT22;9169;44.492;11.372;2023-04-24T15:26:23;29.60;33.90
18085;DHT22;9169;44.492;11.372;2023-04-24T15:28:52;29.40;34.00
18085;DHT22;9169;44.492;11.372;2023-04-24T15:31:22;29.30;34.20
18085;DHT22;9169;44.492;11.372;2023-04-24T15:33:51;29.10;34.40
18085;DHT22;9169;44.492;11.372;2023-04-24T15:36:20;28.90;34.50
18085;DHT22;9169;44.492;11.372;2023-04-24T15:38:49;28.70;34.70
18085;DHT22;9169;44.492;11.372;2023-04-24T15:41:18;28.60;35.50
18085;DHT22;9169;44.492;11.372;2023-04-24T15:43:48;28.50;35.10
18085;DHT22;9169;44.492;11.372;2023-04-24T15:46:16;28.40;35.30
18085;DHT22;9169;44.492;11.372;2023-04-24T15:48:46;28.40;35.40
18085;DHT22;9169;44.492;11.372;2023-04-24T15:51:15;28.40;35.40
18085;DHT22;9169;44.492;11.372;2023-04-24T15:53:44;28.30;35.50